Time;durP1;ratioP1;P1;durP2;ratioP2;P2;SDS_P1;SDS_P2;PMS_P1;PMS_P2;Temp;Humidity;BMP_temperature;BMP_pressure;BME280_temperature;BME280_humidity;BME280_pressure;Samples;Min_cycle;Max_cycle;Signal;HPM_P1;HPM_P2
2020/12/02 00:01:13;;;;;;;14.40;12.90;;;;;;;10.31;64.82;102217.16;5064882;28;20037;-79
2020/12/02 00:03:41;;;;;;;15.93;13.52;;;;;;;10.28;64.97;102212.03;5067854;28;20024;-81
2020/12/02 00:06:08;;;;;;;17.63;14.07;;;;;;;10.16;65.11;102212.31;5064771;28;20131;-82
2020/12/02 00:08:43;;;;;;;17.80;14.85;;;;;;;10.26;64.95;102217.66;5066477;28;20074;-81
2020/12/02 00:11:12;;;;;;;15.00;13.13;;;;;;;10.20;65.07;102224.56;5068556;28;20527;-81
2020/12/02 00:13:41;;;;;;;19.88;15.32;;;;;;;10.20;65.03;102212.84;5067834;28;20453;-81
2020/12/02 00:16:09;;;;;;;15.38;13.82;;;;;;;10.22;64.99;102227.13;5067202;28;20035;-81
2020/12/02 00:18:36;;;;;;;17.98;16.08;;;;;;;10.27;64.65;102230.25;5065335;28;20031;-80
2020/12/02 00:21:03;;;;;;;17.90;15.80;;;;;;;10.28;64.85;102221.03;5068437;28;20028;-80
2020/12/02 00:23:28;;;;;;;16.60;14.93;;;;;;;10.31;64.75;102220.72;5084784;28;20467;-81
2020/12/02 00:25:54;;;;;;;17.50;15.75;;;;;;;10.33;64.77;102212.44;5065010;28;20028;-80
2020/12/02 00:28:29;;;;;;;16.35;14.75;;;;;;;10.40;64.70;102216.22;5062645;28;20494;-81
2020/12/02 00:34:06;;;;;;;18.58;16.02;;;;;;;10.36;64.88;102232.03;5065986;28;20037;-81
2020/12/02 00:36:32;;;;;;;20.20;17.50;;;;;;;10.30;64.78;102229.03;5063763;28;20056;-81
2020/12/02 00:38:57;;;;;;;19.35;17.48;;;;;;;10.34;64.63;102228.59;5066263;28;20032;-83
2020/12/02 00:41:22;;;;;;;19.90;17.85;;;;;;;10.25;64.87;102224.09;5069011;28;20533;-81
2020/12/02 00:43:48;;;;;;;26.77;23.08;;;;;;;10.31;64.92;102222.59;5068826;28;20032;-80
2020/12/02 00:46:13;;;;;;;20.13;16.48;;;;;;;10.38;64.96;102221.84;5068108;28;20070;-80
2020/12/02 00:48:43;;;;;;;18.52;15.60;;;;;;;10.40;65.14;102218.94;5066953;28;20046;-81
2020/12/02 00:51:09;;;;;;;18.30;16.10;;;;;;;10.37;65.11;102219.28;5068656;28;20028;-81
2020/12/02 00:53:35;;;;;;;19.02;14.43;;;;;;;10.45;64.93;102219.31;5064545;28;20032;-80
2020/12/02 00:56:01;;;;;;;17.88;15.30;;;;;;;10.53;64.85;102235.69;5066184;28;20043;-81
2020/12/02 00:58:44;;;;;;;20.67;18.42;;;;;;;10.52;64.80;102227.69;5060197;28;20056;-81
2020/12/02 01:01:14;;;;;;;19.48;17.67;;;;;;;10.54;64.76;102222.94;5067108;28;20032;-81
2020/12/02 01:03:40;;;;;;;18.80;17.00;;;;;;;10.63;64.66;102218.38;5066477;28;20035;-80
2020/12/02 01:06:09;;;;;;;18.17;16.48;;;;;;;10.65;64.65;102221.81;5068678;28;20045;-79
2020/12/02 01:08:40;;;;;;;20.10;16.05;;;;;;;10.69;64.30;102228.59;5067003;28;20570;-80
2020/12/02 01:11:18;;;;;;;20.52;17.90;;;;;;;10.63;64.30;102230.13;5063673;28;20037;-80
2020/12/02 01:13:45;;;;;;;19.23;17.13;;;;;;;10.66;64.23;102235.25;5064256;28;20036;-81
2020/12/02 01:16:17;;;;;;;17.80;15.90;;;;;;;10.67;64.30;102234.22;5066861;28;20032;-82
2020/12/02 01:18:43;;;;;;;16.65;14.88;;;;;;;10.67;64.20;102225.19;5061593;28;20570;-81
2020/12/02 01:21:14;;;;;;;21.08;17.27;;;;;;;10.72;64.08;102226.44;5066555;28;20035;-80
2020/12/02 01:23:40;;;;;;;;;;;;;;;10.70;64.20;102223.00;5065839;28;20029;-81
2020/12/02 01:26:06;;;;;;;18.50;14.00;;;;;;;10.67;64.51;102225.19;5065555;28;20457;-81
2020/12/02 01:28:34;;;;;;;18.52;14.15;;;;;;;10.65;64.31;102217.19;5060944;28;20391;-80
2020/12/02 01:31:01;;;;;;;19.90;18.05;;;;;;;10.70;64.32;102223.00;5067701;28;20036;-80
2020/12/02 01:33:27;;;;;;;19.80;17.90;;;;;;;10.72;64.16;102212.81;5064602;28;20037;-80
2020/12/02 01:35:53;;;;;;;22.08;19.80;;;;;;;10.72;64.45;102212.81;5083880;28;20083;-80
2020/12/02 01:38:26;;;;;;;20.88;18.75;;;;;;;10.74;64.50;102210.78;5066235;28;20039;-80
2020/12/02 01:40:52;;;;;;;20.73;18.63;;;;;;;10.68;64.67;102205.16;5064265;28;20040;-81
2020/12/02 01:43:18;;;;;;;18.38;16.55;;;;;;;10.74;64.54;102216.22;5061659;28;20903;-81
2020/12/02 01:45:46;;;;;;;19.05;16.65;;;;;;;10.73;64.49;102217.22;5066139;28;20060;-80
2020/12/02 01:48:27;;;;;;;18.50;16.70;;;;;;;10.76;64.60;102210.63;5068236;28;20032;-80
2020/12/02 01:51:24;;;;;;;19.05;16.88;;;;;;;10.80;64.57;102217.44;5063800;28;20032;-79
2020/12/02 01:54:06;;;;;;;18.95;16.80;;;;;;;10.83;64.31;102213.53;5062391;28;20043;-80
2020/12/02 01:56:40;;;;;;;18.20;16.25;;;;;;;10.81;64.41;102210.13;5064061;28;20036;-80
2020/12/02 01:59:33;;;;;;;23.63;15.85;;;;;;;10.81;64.53;102210.13;5062673;28;20580;-80
2020/12/02 02:02:07;;;;;;;20.77;16.42;;;;;;;10.82;64.40;102203.69;5065099;28;20033;-80
2020/12/02 02:05:00;;;;;;;23.60;17.95;;;;;;;10.86;64.33;102205.03;5066274;28;20139;-80
2020/12/02 02:07:27;;;;;;;19.52;17.63;;;;;;;10.83;64.59;102203.50;5054546;28;20052;-80
2020/12/02 02:09:57;;;;;;;20.08;14.10;;;;;;;10.86;64.28;102203.19;5078335;28;20050;-80
2020/12/02 02:12:41;;;;;;;17.92;16.05;;;;;;;10.85;64.46;102203.34;5065102;28;20031;-80
2020/12/02 02:15:27;;;;;;;18.30;14.15;;;;;;;10.87;64.33;102195.84;5065294;28;20083;-80
2020/12/02 02:17:59;;;;;;;17.25;14.85;;;;;;;10.90;64.35;102198.25;5067735;28;20075;-80
2020/12/02 02:20:31;;;;;;;22.55;20.17;;;;;;;10.85;64.40;102197.91;5060427;28;20029;-79
2020/12/02 02:22:56;;;;;;;17.25;15.55;;;;;;;10.83;64.36;102202.63;5066755;28;20102;-79
2020/12/02 02:25:22;;;;;;;18.25;16.63;;;;;;;10.88;64.38;102194.84;5062356;28;20040;-79
2020/12/02 02:27:49;;;;;;;22.42;20.23;;;;;;;10.79;64.51;102184.97;5064932;28;20043;-79
2020/12/02 02:30:15;;;;;;;23.17;20.73;;;;;;;10.85;64.51;102192.47;5063813;28;20131;-79
2020/12/02 02:32:41;;;;;;;28.48;25.80;;;;;;;10.82;64.39;102192.78;5066572;28;20029;-80
2020/12/02 02:35:07;;;;;;;17.17;14.90;;;;;;;10.78;64.74;102188.69;5066208;28;20036;-80
2020/12/02 02:37:33;;;;;;;23.02;20.63;;;;;;;10.87;64.35;102193.13;5064841;28;20059;-79
2020/12/02 02:40:00;;;;;;;18.70;16.90;;;;;;;10.81;64.33;102189.19;5064805;28;20041;-80
2020/12/02 02:42:26;;;;;;;20.63;17.63;;;;;;;10.79;64.65;102185.78;5060982;28;20086;-79
2020/12/02 02:44:51;;;;;;;17.88;16.17;;;;;;;10.85;64.48;102173.41;5067550;28;20463;-80
2020/12/02 02:47:17;;;;;;;19.45;16.35;;;;;;;10.87;64.60;102182.25;5062541;28;20063;-79
2020/12/02 02:49:42;;;;;;;15.98;14.07;;;;;;;10.83;64.56;102176.28;5065239;28;20033;-79
2020/12/02 02:52:08;;;;;;;16.88;15.25;;;;;;;10.86;64.60;102178.69;5066098;28;20043;-79
2020/12/02 02:54:34;;;;;;;15.25;13.65;;;;;;;10.87;64.54;102174.09;5064844;28;20085;-79
2020/12/02 02:56:59;;;;;;;14.32;12.82;;;;;;;10.83;64.53;102173.56;5060802;28;20047;-80
2020/12/02 02:59:24;;;;;;;17.52;15.73;;;;;;;10.81;64.72;102174.75;5065088;28;20040;-79
2020/12/02 03:01:50;;;;;;;17.27;14.23;;;;;;;10.84;64.66;102172.53;5062394;28;20036;-79
2020/12/02 03:04:15;;;;;;;17.00;15.20;;;;;;;10.86;64.53;102165.09;5066948;28;20045;-79
2020/12/02 03:06:41;;;;;;;20.60;16.95;;;;;;;10.86;64.47;102173.25;5064563;28;20108;-80
2020/12/02 03:09:10;;;;;;;16.92;15.15;;;;;;;10.91;64.39;102165.44;5064728;28;20033;-80
2020/12/02 03:11:37;;;;;;;18.10;15.95;;;;;;;10.93;64.32;102170.69;5060447;28;20039;-79
2020/12/02 03:14:02;;;;;;;15.65;13.13;;;;;;;10.95;64.40;102163.22;5066740;28;20557;-79
2020/12/02 03:16:36;;;;;;;21.77;13.75;;;;;;;10.86;64.76;102172.38;5059403;28;20046;-79
2020/12/02 03:19:18;;;;;;;18.13;14.98;;;;;;;10.92;64.45;102164.41;5064680;28;20036;-80
2020/12/02 03:21:44;;;;;;;17.17;15.48;;;;;;;10.95;64.50;102157.78;5062917;28;20500;-80
2020/12/02 03:24:09;;;;;;;19.50;14.90;;;;;;;10.85;64.72;102152.47;5064692;28;20030;-79
2020/12/02 03:26:36;;;;;;;16.63;14.15;;;;;;;10.86;64.57;102156.91;5064202;28;20128;-79
2020/12/02 03:29:02;;;;;;;18.60;16.65;;;;;;;10.84;64.57;102167.09;5066776;28;20535;-79
2020/12/02 03:31:27;;;;;;;16.08;14.48;;;;;;;10.91;64.65;102156.41;5060862;28;20533;-79
2020/12/02 03:33:53;;;;;;;16.38;14.68;;;;;;;10.90;64.29;102161.00;5065475;28;20045;-79
2020/12/02 03:36:19;;;;;;;17.55;14.70;;;;;;;10.88;64.53;102149.44;5070644;28;20048;-79
2020/12/02 03:38:47;;;;;;;16.90;13.90;;;;;;;10.96;64.51;102155.91;5066898;28;20482;-79
2020/12/02 03:41:13;;;;;;;16.90;15.10;;;;;;;10.94;64.33;102153.38;5070972;28;20031;-79
2020/12/02 03:43:38;;;;;;;15.63;13.93;;;;;;;10.96;64.38;102142.31;5070559;28;20375;-79
2020/12/02 03:46:04;;;;;;;13.27;11.63;;;;;;;10.98;64.37;102141.09;5068588;28;20059;-80
2020/12/02 03:48:30;;;;;;;14.18;12.52;;;;;;;10.96;64.40;102135.00;5068739;28;20028;-79
2020/12/02 03:50:55;;;;;;;16.65;13.40;;;;;;;10.89;64.64;102125.78;5069060;28;20809;-79
2020/12/02 03:53:21;;;;;;;16.30;14.40;;;;;;;10.83;64.80;102115.56;5062928;28;20032;-79
2020/12/02 03:55:47;;;;;;;22.50;15.80;;;;;;;10.79;64.71;102114.19;5068683;28;20028;-79
2020/12/02 03:58:12;;;;;;;18.83;14.90;;;;;;;10.67;65.08;102117.22;5063646;28;20129;-78
2020/12/02 04:00:38;;;;;;;13.68;11.90;;;;;;;10.85;65.00;102110.81;5067086;28;20074;-79
2020/12/02 04:03:04;;;;;;;19.33;13.77;;;;;;;10.77;64.93;102110.78;5063280;28;20110;-78
2020/12/02 04:05:29;;;;;;;16.90;14.18;;;;;;;10.69;65.22;102104.31;5068349;28;20157;-78
2020/12/02 04:07:55;;;;;;;18.90;14.27;;;;;;;10.68;65.13;102096.31;5066136;28;20457;-79
2020/12/02 04:10:21;;;;;;;19.42;17.35;;;;;;;10.58;65.30;102096.44;5066285;28;20115;-78
2020/12/02 04:12:46;;;;;;;20.50;16.98;;;;;;;10.59;65.22;102090.00;5069339;28;20098;-79
2020/12/02 04:15:14;;;;;;;19.88;17.00;;;;;;;10.59;65.25;102087.28;5068935;28;20036;-78
2020/12/02 04:17:41;;;;;;;19.95;17.80;;;;;;;10.55;65.30;102091.34;5068619;28;20410;-79
2020/12/02 04:20:07;;;;;;;21.77;18.98;;;;;;;10.30;66.17;102083.09;5064111;28;20056;-79
2020/12/02 04:22:33;;;;;;;25.30;22.48;;;;;;;10.45;65.67;102072.44;5068306;28;20139;-78
2020/12/02 04:24:58;;;;;;;22.13;17.52;;;;;;;10.42;65.38;102082.81;5084707;28;20060;-79
2020/12/02 04:27:24;;;;;;;26.15;21.60;;;;;;;10.39;65.67;102081.25;5069195;28;20036;-79
2020/12/02 04:29:49;;;;;;;25.60;20.70;;;;;;;10.32;66.05;102085.63;5066795;28;20054;-79
2020/12/02 04:32:15;;;;;;;22.45;18.05;;;;;;;10.40;65.84;102088.41;5066577;28;20036;-78
2020/12/02 04:34:40;;;;;;;24.58;17.63;;;;;;;10.37;65.84;102086.88;5065120;28;20040;-79
2020/12/02 04:37:06;;;;;;;19.65;16.60;;;;;;;10.36;65.76;102087.03;5068621;28;20057;-79
2020/12/02 04:39:31;;;;;;;23.42;18.73;;;;;;;10.44;65.29;102095.25;5061623;28;20048;-78
2020/12/02 04:41:56;;;;;;;23.30;19.15;;;;;;;10.43;65.58;102090.81;5064752;28;20055;-79
2020/12/02 04:44:22;;;;;;;23.30;17.98;;;;;;;10.44;65.38;102086.22;5066645;28;20040;-79
2020/12/02 04:46:53;;;;;;;24.35;20.13;;;;;;;10.44;65.25;102089.78;5068467;28;20028;-79
2020/12/02 04:49:23;;;;;;;22.98;17.88;;;;;;;10.52;65.13;102086.25;5065864;28;20028;-79
2020/12/02 04:51:53;;;;;;;23.25;19.27;;;;;;;10.55;65.13;102083.16;5065732;28;20028;-81
2020/12/02 04:54:19;;;;;;;24.20;19.63;;;;;;;10.53;65.34;102093.38;5067534;28;20035;-81
2020/12/02 04:56:47;;;;;;;23.98;16.65;;;;;;;10.44;65.50;102089.78;5067001;28;20024;-81
2020/12/02 04:59:13;;;;;;;22.63;17.40;;;;;;;10.44;65.40;102094.38;5060830;28;20037;-80
2020/12/02 05:01:53;;;;;;;21.48;18.42;;;;;;;10.54;65.35;102085.06;5067731;28;20117;-79
2020/12/02 05:04:21;;;;;;;25.43;17.10;;;;;;;10.57;65.15;102078.44;5061662;28;20025;-79
2020/12/02 05:06:50;;;;;;;18.20;15.13;;;;;;;10.61;64.99;102082.50;5067524;28;20036;-79
2020/12/02 05:09:24;;;;;;;18.30;15.05;;;;;;;10.60;65.13;102080.81;5067362;28;20024;-78
2020/12/02 05:12:00;;;;;;;22.48;18.15;;;;;;;10.51;65.52;102079.09;5065515;28;20055;-78
2020/12/02 05:14:34;;;;;;;21.75;18.10;;;;;;;10.62;65.23;102077.94;5061856;28;20045;-78
2020/12/02 05:17:06;;;;;;;23.67;17.98;;;;;;;10.61;65.41;102078.94;5065297;28;20111;-79
2020/12/02 05:19:31;;;;;;;25.20;18.70;;;;;;;10.67;64.96;102083.72;5067258;28;20064;-78
2020/12/02 05:22:06;;;;;;;25.05;19.25;;;;;;;10.66;65.10;102066.56;5063539;28;20070;-79
2020/12/02 05:24:50;;;;;;;23.70;17.08;;;;;;;10.64;65.47;102074.00;5068120;28;20032;-79
2020/12/02 05:27:21;;;;;;;26.50;19.48;;;;;;;10.70;65.23;102076.06;5065127;28;20037;-79
2020/12/02 05:30:02;;;;;;;23.00;18.42;;;;;;;10.68;65.07;102067.22;5064354;28;20078;-79
2020/12/02 05:32:29;;;;;;;21.55;17.63;;;;;;;10.71;65.06;102068.78;5065880;28;20025;-79
2020/12/02 05:34:56;;;;;;;25.60;22.77;;;;;;;10.69;65.00;102060.78;5065009;28;20056;-79
2020/12/02 05:37:33;;;;;;;24.63;21.35;;;;;;;10.73;64.94;102053.97;5066163;28;20498;-78
2020/12/02 05:40:04;;;;;;;26.73;23.08;;;;;;;10.71;65.20;102056.03;5061338;28;20032;-79
2020/12/02 05:42:40;;;;;;;28.27;23.20;;;;;;;10.72;65.05;102060.44;5066431;28;20040;-78
2020/12/02 05:45:17;;;;;;;25.20;20.08;;;;;;;10.72;64.98;102056.84;5067582;28;20039;-78
2020/12/02 05:47:48;;;;;;;27.33;22.67;;;;;;;10.71;65.10;102044.28;5067686;28;20034;-79
2020/12/02 05:50:15;;;;;;;26.88;20.90;;;;;;;10.72;65.08;102052.28;5067294;28;20070;-79
2020/12/02 05:52:45;;;;;;;27.48;21.15;;;;;;;10.71;65.21;102038.84;5066719;28;20039;-79
2020/12/02 05:55:31;;;;;;;32.63;26.25;;;;;;;10.62;65.13;102048.84;5066969;28;20568;-79
2020/12/02 05:58:15;;;;;;;29.95;22.75;;;;;;;10.67;64.95;102053.78;5064575;28;20031;-79
2020/12/02 06:00:40;;;;;;;32.85;23.83;;;;;;;10.68;64.85;102053.63;5064366;28;20116;-79
2020/12/02 06:03:10;;;;;;;32.85;21.05;;;;;;;10.67;64.93;102051.06;5064640;28;20123;-79
2020/12/02 06:05:36;;;;;;;36.45;24.20;;;;;;;10.65;64.94;102050.41;5063870;28;20025;-79
2020/12/02 06:08:03;;;;;;;35.13;23.73;;;;;;;10.56;65.17;102047.66;5063229;28;20032;-78
2020/12/02 06:10:41;;;;;;;34.60;24.35;;;;;;;10.53;65.00;102041.69;5060229;28;20028;-78
2020/12/02 06:13:10;;;;;;;37.72;26.95;;;;;;;10.53;65.07;102045.28;5067551;28;20051;-80
2020/12/02 06:15:38;;;;;;;34.25;24.50;;;;;;;10.59;64.95;102040.19;5058874;28;20032;-80
2020/12/02 06:18:13;;;;;;;33.38;23.80;;;;;;;10.67;64.91;102051.91;5067039;28;20032;-81
2020/12/02 06:20:44;;;;;;;34.28;25.60;;;;;;;10.70;65.04;102054.31;5060165;28;20151;-80
2020/12/02 06:23:09;;;;;;;;;;;;;;;10.73;64.70;102058.56;5068298;28;20113;-80
2020/12/02 06:25:53;;;;;;;34.97;25.88;;;;;;;10.70;64.85;102046.13;5067293;28;20430;-80
2020/12/02 06:28:30;;;;;;;33.92;25.33;;;;;;;10.67;64.79;102051.06;5063178;28;20040;-79
2020/12/02 06:31:01;;;;;;;39.75;29.17;;;;;;;10.66;64.69;102049.38;5066445;28;20024;-80
2020/12/02 06:33:34;;;;;;;39.67;26.83;;;;;;;10.67;64.66;102040.19;5062354;28;20035;-80
2020/12/02 06:36:10;;;;;;;33.63;24.88;;;;;;;10.73;64.57;102045.81;5064920;28;20143;-78
2020/12/02 06:38:35;;;;;;;34.80;26.73;;;;;;;10.73;64.52;102043.09;5063188;28;20043;-79
2020/12/02 06:41:00;;;;;;;37.83;27.50;;;;;;;10.74;64.54;102035.78;5068673;28;20040;-79
2020/12/02 06:43:30;;;;;;;35.47;25.30;;;;;;;10.78;64.57;102039.03;5063007;28;20048;-79
2020/12/02 06:46:04;;;;;;;32.63;25.23;;;;;;;10.78;64.31;102031.69;5065360;28;20463;-79
2020/12/02 06:48:39;;;;;;;34.17;28.85;;;;;;;10.80;64.42;102037.84;5078716;28;20024;-79
2020/12/02 06:51:10;;;;;;;40.58;29.08;;;;;;;10.79;64.72;102035.28;5064468;28;20028;-79
2020/12/02 06:53:35;;;;;;;33.42;24.67;;;;;;;10.82;64.67;102043.13;5065499;28;20043;-78
2020/12/02 06:56:04;;;;;;;36.00;25.92;;;;;;;10.78;64.68;102028.97;5065238;28;20036;-79
2020/12/02 06:58:30;;;;;;;36.80;29.42;;;;;;;10.70;64.69;102035.25;5063416;28;20556;-78
2020/12/02 07:01:00;;;;;;;35.75;27.02;;;;;;;10.76;64.41;102033.75;5066326;28;20036;-78
2020/12/02 07:03:28;;;;;;;33.80;25.45;;;;;;;10.74;64.57;102031.19;5058440;28;20032;-78
2020/12/02 07:06:17;;;;;;;34.28;25.17;;;;;;;10.78;64.43;102030.84;5062500;28;20556;-79
2020/12/02 07:08:43;;;;;;;33.17;25.40;;;;;;;10.80;64.57;102021.50;5058661;28;20558;-79
2020/12/02 07:11:12;;;;;;;34.00;25.23;;;;;;;10.76;64.51;102028.31;5070466;28;20466;-78
2020/12/02 07:13:41;;;;;;;35.92;24.58;;;;;;;10.78;64.41;102025.41;5069598;28;20036;-78
2020/12/02 07:16:29;;;;;;;34.53;23.80;;;;;;;10.74;64.50;102023.03;5067677;28;20016;-78
2020/12/02 07:18:58;;;;;;;36.30;27.08;;;;;;;10.77;64.50;102029.16;5069322;28;20059;-78
2020/12/02 07:21:31;;;;;;;33.53;26.23;;;;;;;10.77;64.47;102026.41;5068895;28;20032;-78
2020/12/02 07:23:58;;;;;;;37.60;27.13;;;;;;;10.71;64.50;102014.38;5065116;28;20037;-78
2020/12/02 07:26:25;;;;;;;36.15;26.52;;;;;;;10.69;64.35;102017.25;5052481;28;20681;-78
2020/12/02 07:29:18;;;;;;;33.28;25.40;;;;;;;10.72;64.45;102016.91;5063203;28;20032;-78
2020/12/02 07:31:44;;;;;;;31.63;24.27;;;;;;;10.68;64.42;102014.69;5068773;28;20036;-78
2020/12/02 07:34:20;;;;;;;32.42;23.58;;;;;;;10.71;64.43;102014.38;5065518;28;20703;-78
2020/12/02 07:36:46;;;;;;;33.30;24.38;;;;;;;10.71;64.34;102009.75;5067799;28;20136;-78
2020/12/02 07:39:13;;;;;;;35.15;25.00;;;;;;;10.73;64.23;102018.59;5065185;28;20390;-78
2020/12/02 07:42:00;;;;;;;31.42;22.77;;;;;;;10.75;64.11;102016.56;5068673;28;20043;-78
2020/12/02 07:44:29;;;;;;;31.27;24.00;;;;;;;10.70;64.20;102002.59;5069179;28;20059;-78
2020/12/02 07:46:59;;;;;;;40.70;31.08;;;;;;;10.66;64.36;102004.00;5068157;28;20032;-78
2020/12/02 07:49:24;;;;;;;30.65;23.92;;;;;;;10.70;64.29;102002.59;5065748;28;20029;-78
2020/12/02 07:51:58;;;;;;;32.80;25.98;;;;;;;10.61;64.29;102003.63;5067942;28;20039;-78
2020/12/02 07:54:28;;;;;;;34.78;26.45;;;;;;;10.60;64.23;101992.91;5063808;28;20051;-78
2020/12/02 07:56:54;;;;;;;36.05;27.23;;;;;;;10.64;64.34;101984.25;5071169;28;20059;-78
2020/12/02 07:59:24;;;;;;;33.67;27.15;;;;;;;10.67;64.38;101992.06;5069383;28;20518;-78
2020/12/02 08:01:53;;;;;;;35.00;27.90;;;;;;;10.63;64.24;101989.84;5068389;28;20115;-78
2020/12/02 08:04:21;;;;;;;35.33;27.85;;;;;;;10.65;64.28;101996.00;5068678;28;20021;-78
2020/12/02 08:07:05;;;;;;;39.55;28.55;;;;;;;10.67;64.02;101997.50;5068104;28;20029;-78
2020/12/02 08:09:36;;;;;;;36.08;27.02;;;;;;;10.60;64.34;101996.50;5068030;28;20035;-78
2020/12/02 08:12:06;;;;;;;38.53;31.10;;;;;;;10.64;64.37;101989.69;5070345;28;20028;-78
2020/12/02 08:14:41;;;;;;;39.00;30.55;;;;;;;10.60;64.42;101982.91;5068077;28;20045;-77
2020/12/02 08:17:13;;;;;;;40.55;28.35;;;;;;;10.53;64.31;101996.31;5068175;28;20082;-78
2020/12/02 08:19:41;;;;;;;37.15;26.50;;;;;;;10.59;64.43;101983.06;5066680;28;20432;-77
2020/12/02 08:22:18;;;;;;;39.38;31.05;;;;;;;10.65;64.10;101983.22;5069063;28;20039;-78
2020/12/02 08:24:44;;;;;;;34.70;26.13;;;;;;;10.54;64.37;101980.84;5069202;28;20039;-77
2020/12/02 08:27:12;;;;;;;40.05;32.22;;;;;;;10.61;64.34;101984.56;5071049;28;20478;-78
2020/12/02 08:29:38;;;;;;;36.40;26.65;;;;;;;10.63;64.31;101981.69;5067478;28;20036;-77
2020/12/02 08:32:29;;;;;;;34.55;26.10;;;;;;;10.59;64.41;101985.78;5066600;28;20107;-78
2020/12/02 08:34:54;;;;;;;34.60;25.45;;;;;;;10.61;64.42;101978.28;5069012;28;20033;-78
2020/12/02 08:37:19;;;;;;;37.58;27.88;;;;;;;10.53;65.09;101981.84;5063964;28;20048;-78
2020/12/02 08:39:48;;;;;;;37.80;27.02;;;;;;;10.60;64.30;101974.72;5069611;28;20065;-78
2020/12/02 08:42:28;;;;;;;34.58;25.05;;;;;;;10.49;64.45;101967.75;5066269;28;20063;-79
2020/12/02 08:45:00;;;;;;;41.22;29.25;;;;;;;10.57;64.89;101964.19;5067928;28;20028;-78
2020/12/02 08:47:26;;;;;;;35.95;26.65;;;;;;;10.59;64.52;101969.47;5065306;28;20025;-78
2020/12/02 08:49:51;;;;;;;34.70;28.08;;;;;;;10.49;64.41;101961.47;5070010;28;20486;-78
2020/12/02 08:52:16;;;;;;;34.35;27.10;;;;;;;10.32;65.32;101955.97;5068660;28;20025;-78
2020/12/02 08:54:42;;;;;;;38.10;29.80;;;;;;;10.51;64.62;101956.72;5069140;28;20024;-78
2020/12/02 08:57:08;;;;;;;38.05;26.38;;;;;;;10.44;64.49;101950.22;5059742;28;20065;-78
2020/12/02 08:59:34;;;;;;;39.72;30.90;;;;;;;10.50;64.71;101946.84;5069049;28;20491;-78
2020/12/02 09:02:15;;;;;;;35.35;28.35;;;;;;;10.56;64.57;101946.16;5068094;28;20032;-78
2020/12/02 09:04:42;;;;;;;35.10;26.55;;;;;;;10.63;64.48;101951.75;5064784;28;20024;-78
2020/12/02 09:07:08;;;;;;;33.75;24.27;;;;;;;10.66;64.42;101946.84;5064800;28;20499;-79
2020/12/02 09:09:34;;;;;;;36.13;24.85;;;;;;;10.72;63.99;101946.19;5067134;28;20079;-78
2020/12/02 09:11:59;;;;;;;32.70;23.65;;;;;;;10.64;64.30;101946.16;5066395;28;20530;-79
2020/12/02 09:14:24;;;;;;;31.77;23.48;;;;;;;10.70;63.93;101942.75;5064965;28;20040;-79
2020/12/02 09:16:50;;;;;;;34.33;23.40;;;;;;;10.71;63.90;101933.59;5065849;28;20051;-78
2020/12/02 09:19:17;;;;;;;33.03;26.25;;;;;;;10.70;63.75;101939.19;5066701;28;20055;-79
2020/12/02 09:21:44;;;;;;;35.38;25.67;;;;;;;10.73;64.11;101939.69;5064796;28;20034;-79
2020/12/02 09:24:09;;;;;;;35.45;26.55;;;;;;;10.79;63.82;101934.59;5065334;28;20113;-79
2020/12/02 09:26:35;;;;;;;36.45;27.52;;;;;;;10.76;63.93;101930.34;5066968;28;20115;-78
2020/12/02 09:29:03;;;;;;;31.75;23.13;;;;;;;10.75;63.97;101929.50;5065060;28;20033;-78
2020/12/02 09:31:30;;;;;;;33.28;23.83;;;;;;;10.81;63.68;101927.94;5049371;28;20111;-78
2020/12/02 09:33:55;;;;;;;33.30;22.80;;;;;;;10.80;63.90;101925.41;5060315;28;20060;-78
2020/12/02 09:36:21;;;;;;;33.60;23.90;;;;;;;10.75;63.71;101931.34;5066519;28;20079;-78
2020/12/02 09:38:48;;;;;;;35.90;25.75;;;;;;;10.75;63.43;101924.06;5065609;28;20052;-78
2020/12/02 09:41:54;;;;;;;30.38;23.08;;;;;;;10.74;63.67;101919.63;5065677;28;20619;-80
2020/12/02 09:44:35;;;;;;;36.95;24.42;;;;;;;10.79;63.31;101916.41;5064507;28;20079;-78
2020/12/02 09:47:13;;;;;;;31.90;23.40;;;;;;;10.86;63.44;101908.38;5066753;28;20115;-79
2020/12/02 09:49:40;;;;;;;33.80;24.70;;;;;;;10.82;63.47;101913.34;5064346;28;20029;-79
2020/12/02 09:52:09;;;;;;;34.38;23.85;;;;;;;10.83;63.45;101903.28;5065968;28;20043;-78
2020/12/02 09:54:42;;;;;;;33.92;25.60;;;;;;;10.84;63.39;101916.72;5063156;28;20032;-79
2020/12/02 09:57:18;;;;;;;36.42;28.75;;;;;;;10.86;63.45;101900.22;5063580;28;20125;-78
2020/12/02 09:59:44;;;;;;;33.47;27.20;;;;;;;10.82;63.62;101902.44;5066507;28;20077;-79
2020/12/02 10:02:32;;;;;;;33.95;24.88;;;;;;;10.93;63.41;101899.38;5063818;28;20040;-79
2020/12/02 10:05:05;;;;;;;37.05;26.08;;;;;;;10.91;63.44;101893.25;5075205;28;20043;-79
2020/12/02 10:07:54;;;;;;;38.25;27.80;;;;;;;10.87;63.67;101891.06;5081812;28;20025;-79
2020/12/02 10:10:38;;;;;;;36.15;27.48;;;;;;;10.94;63.58;101889.34;5061949;28;20037;-79
2020/12/02 10:13:28;;;;;;;34.55;26.80;;;;;;;11.00;63.49;101887.78;5064866;28;20032;-79
2020/12/02 10:16:13;;;;;;;39.33;29.30;;;;;;;11.07;63.55;101884.19;5062934;28;20028;-78
2020/12/02 10:19:01;;;;;;;36.92;28.02;;;;;;;11.02;63.50;101881.16;5065853;28;20026;-78
2020/12/02 10:21:45;;;;;;;41.45;30.23;;;;;;;11.07;63.12;101886.06;5064420;28;20050;-79
2020/12/02 10:24:30;;;;;;;39.03;26.90;;;;;;;11.03;63.29;101876.56;5065922;28;20028;-78
2020/12/02 10:27:25;;;;;;;37.67;27.52;;;;;;;11.09;62.99;101871.28;5077572;28;20040;-79
2020/12/02 10:30:15;;;;;;;32.97;26.50;;;;;;;11.08;63.15;101858.69;5067182;28;20044;-79
2020/12/02 10:32:54;;;;;;;35.08;26.65;;;;;;;11.17;63.48;101850.47;5078272;28;20105;-78
2020/12/02 10:35:21;;;;;;;39.92;28.38;;;;;;;11.29;63.20;101849.06;5064588;28;20040;-79
2020/12/02 10:37:48;;;;;;;40.83;30.13;;;;;;;11.21;63.14;101847.22;5063105;28;20135;-79
2020/12/02 10:40:15;;;;;;;42.63;33.50;;;;;;;11.25;63.03;101837.69;5063619;28;20439;-78
2020/12/02 10:42:58;;;;;;;41.50;28.92;;;;;;;11.25;63.16;101837.69;5061044;28;20082;-79
2020/12/02 10:45:24;;;;;;;40.97;29.73;;;;;;;11.24;62.89;101838.72;5066501;28;20047;-79
2020/12/02 10:48:28;;;;;;;37.30;26.95;;;;;;;11.12;62.96;101821.06;5061393;28;20033;-79
2020/12/02 10:50:55;;;;;;;34.85;26.98;;;;;;;11.23;63.64;101820.69;5065814;28;20074;-79
2020/12/02 10:53:27;;;;;;;36.38;27.85;;;;;;;11.32;63.26;101815.19;5063253;28;20037;-79
2020/12/02 10:55:53;;;;;;;33.97;24.50;;;;;;;11.38;63.36;101815.34;5063151;28;20021;-79
2020/12/02 10:58:21;;;;;;;37.17;27.25;;;;;;;11.49;63.43;101815.97;5064950;28;20060;-79
2020/12/02 11:00:52;;;;;;;39.00;28.17;;;;;;;11.54;63.20;101808.09;5066239;28;21440;-79
2020/12/02 11:03:17;;;;;;;;;;;;;;;11.60;63.46;101800.06;5062783;28;20560;-79
2020/12/02 11:05:50;;;;;;;34.78;24.15;;;;;;;11.65;63.04;101800.38;5065482;28;19916;-79
2020/12/02 11:08:27;;;;;;;34.05;24.30;;;;;;;11.74;63.05;101787.56;5065243;28;20104;-78
2020/12/02 11:11:42;;;;;;;38.00;27.90;;;;;;;11.82;62.72;101783.94;5064391;28;20034;-79
2020/12/02 11:14:12;;;;;;;38.80;28.33;;;;;;;11.83;62.63;101775.56;5048932;28;20193;-78
2020/12/02 11:16:57;;;;;;;39.58;28.55;;;;;;;11.69;62.44;101783.66;5062493;28;20041;-79
2020/12/02 11:19:51;;;;;;;40.38;29.00;;;;;;;11.72;62.37;101766.97;5063928;28;20044;-79
2020/12/02 11:23:08;;;;;;;36.03;25.80;;;;;;;11.75;62.36;101756.53;5063141;28;20032;-79
2020/12/02 11:25:47;;;;;;;36.00;27.65;;;;;;;11.74;62.40;101743.97;5021767;28;20140;-79
2020/12/02 11:28:15;;;;;;;36.92;29.20;;;;;;;11.72;62.43;101736.97;5021865;28;20042;-80
2020/12/02 11:30:43;;;;;;;40.55;29.33;;;;;;;11.59;62.99;101729.41;5052384;28;20517;-79